Central Virginia Flyers


Central Virginia Flyers is a 10 member flying club based in Richmond, VA at Hanover County Airport (KOFP). We own N787AT, a 1977 Cessna 172 with 180hp conversion. If you are interested in membership, please contact Brenton at [email protected]


Aviation Digital Data Service (ADDS)

Output produced by METARs form (1915 UTC 19 September 2018)
found at http://aviationweather.gov/metar/data/
 
KOFP 191854Z AUTO VRB06KT 10SM SCT043 SCT050 31/21 A2995 RMK AO2 SLP138 T03060211
KRIC 191854Z 36013KT 10SM SCT042 30/20 A2993 RMK AO2 SLP138 T03000200
KRIC 191736Z 1918/2018 35010KT P6SM SCT040 
     FM192300 01004KT P6SM SKC 
     FM200400 00000KT P6SM SKC 
     FM201300 08005KT P6SM SCT040